sensor_id;sensor_type;location;lat;lon;timestamp;P1;durP1;ratioP1;P2;durP2;ratioP2
8550;SDS011;4313;42.000;21.380;2023-01-08T00:00:12;47.00;;;33.27;;
8550;SDS011;4313;42.000;21.380;2023-01-08T00:02:39;43.93;;;30.57;;
8550;SDS011;4313;42.000;21.380;2023-01-08T00:05:07;49.03;;;32.63;;
8550;SDS011;4313;42.000;21.380;2023-01-08T00:07:35;63.13;;;39.03;;
8550;SDS011;4313;42.000;21.380;2023-01-08T00:10:02;62.80;;;42.03;;
8550;SDS011;4313;42.000;21.380;2023-01-08T00:12:30;56.13;;;40.37;;
8550;SDS011;4313;42.000;21.380;2023-01-08T00:14:57;64.23;;;42.17;;
8550;SDS011;4313;42.000;21.380;2023-01-08T00:17:25;56.37;;;36.93;;
8550;SDS011;4313;42.000;21.380;2023-01-08T00:19:52;54.97;;;36.10;;
8550;SDS011;4313;42.000;21.380;2023-01-08T00:22:19;56.93;;;37.30;;
8550;SDS011;4313;42.000;21.380;2023-01-08T00:24:46;65.27;;;41.50;;
8550;SDS011;4313;42.000;21.380;2023-01-08T00:27:13;60.43;;;37.13;;
8550;SDS011;4313;42.000;21.380;2023-01-08T00:29:40;56.33;;;36.33;;
8550;SDS011;4313;42.000;21.380;2023-01-08T00:32:08;56.57;;;36.73;;
8550;SDS011;4313;42.000;21.380;2023-01-08T00:34:36;56.17;;;37.67;;
8550;SDS011;4313;42.000;21.380;2023-01-08T00:37:03;55.17;;;37.60;;
8550;SDS011;4313;42.000;21.380;2023-01-08T00:39:30;57.23;;;38.93;;
8550;SDS011;4313;42.000;21.380;2023-01-08T00:41:57;59.73;;;39.23;;
8550;SDS011;4313;42.000;21.380;2023-01-08T00:44:24;53.87;;;36.60;;
8550;SDS011;4313;42.000;21.380;2023-01-08T00:46:51;50.50;;;34.37;;
8550;SDS011;4313;42.000;21.380;2023-01-08T00:49:18;48.23;;;34.90;;
8550;SDS011;4313;42.000;21.380;2023-01-08T00:51:46;49.33;;;34.47;;
8550;SDS011;4313;42.000;21.380;2023-01-08T00:54:14;45.83;;;31.80;;
8550;SDS011;4313;42.000;21.380;2023-01-08T00:56:41;45.93;;;29.90;;
8550;SDS011;4313;42.000;21.380;2023-01-08T00:59:08;44.80;;;31.00;;
8550;SDS011;4313;42.000;21.380;2023-01-08T01:01:35;52.23;;;33.83;;
8550;SDS011;4313;42.000;21.380;2023-01-08T01:04:02;58.17;;;37.50;;
8550;SDS011;4313;42.000;21.380;2023-01-08T01:06:29;44.73;;;32.83;;
8550;SDS011;4313;42.000;21.380;2023-01-08T01:09:02;43.27;;;29.07;;
8550;SDS011;4313;42.000;21.380;2023-01-08T01:11:29;41.23;;;25.73;;
8550;SDS011;4313;42.000;21.380;2023-01-08T01:13:56;41.47;;;27.60;;
8550;SDS011;4313;42.000;21.380;2023-01-08T01:16:23;43.97;;;27.07;;
8550;SDS011;4313;42.000;21.380;2023-01-08T01:18:50;49.37;;;29.53;;
8550;SDS011;4313;42.000;21.380;2023-01-08T01:21:20;46.83;;;31.27;;
8550;SDS011;4313;42.000;21.380;2023-01-08T01:23:48;47.27;;;30.27;;
8550;SDS011;4313;42.000;21.380;2023-01-08T01:26:18;56.70;;;34.50;;
8550;SDS011;4313;42.000;21.380;2023-01-08T01:28:46;49.83;;;32.97;;
8550;SDS011;4313;42.000;21.380;2023-01-08T01:31:14;55.10;;;36.93;;
8550;SDS011;4313;42.000;21.380;2023-01-08T01:33:41;60.77;;;37.33;;
8550;SDS011;4313;42.000;21.380;2023-01-08T01:36:09;41.43;;;27.30;;
8550;SDS011;4313;42.000;21.380;2023-01-08T01:38:41;46.73;;;29.77;;
8550;SDS011;4313;42.000;21.380;2023-01-08T01:41:15;35.70;;;25.43;;
8550;SDS011;4313;42.000;21.380;2023-01-08T01:43:47;42.67;;;29.03;;
8550;SDS011;4313;42.000;21.380;2023-01-08T01:46:16;46.20;;;29.50;;
8550;SDS011;4313;42.000;21.380;2023-01-08T01:48:46;63.77;;;37.03;;
8550;SDS011;4313;42.000;21.380;2023-01-08T01:51:14;92.37;;;47.50;;
8550;SDS011;4313;42.000;21.380;2023-01-08T01:53:41;76.30;;;42.00;;
8550;SDS011;4313;42.000;21.380;2023-01-08T01:56:08;44.67;;;28.07;;
8550;SDS011;4313;42.000;21.380;2023-01-08T01:58:39;36.80;;;24.37;;
8550;SDS011;4313;42.000;21.380;2023-01-08T02:01:10;31.73;;;21.33;;
8550;SDS011;4313;42.000;21.380;2023-01-08T02:03:38;34.90;;;22.73;;
8550;SDS011;4313;42.000;21.380;2023-01-08T02:06:08;31.67;;;22.83;;
8550;SDS011;4313;42.000;21.380;2023-01-08T02:08:45;37.90;;;24.63;;
8550;SDS011;4313;42.000;21.380;2023-01-08T02:11:19;35.20;;;23.47;;
8550;SDS011;4313;42.000;21.380;2023-01-08T02:13:50;55.53;;;31.50;;
8550;SDS011;4313;42.000;21.380;2023-01-08T02:16:24;61.60;;;36.70;;
8550;SDS011;4313;42.000;21.380;2023-01-08T02:18:53;58.00;;;36.37;;
8550;SDS011;4313;42.000;21.380;2023-01-08T02:21:25;67.70;;;39.23;;
8550;SDS011;4313;42.000;21.380;2023-01-08T02:23:56;70.83;;;41.87;;
8550;SDS011;4313;42.000;21.380;2023-01-08T02:26:28;38.17;;;26.67;;
8550;SDS011;4313;42.000;21.380;2023-01-08T02:28:56;35.83;;;23.47;;
8550;SDS011;4313;42.000;21.380;2023-01-08T02:31:26;35.07;;;22.63;;
8550;SDS011;4313;42.000;21.380;2023-01-08T02:33:54;37.33;;;24.13;;
8550;SDS011;4313;42.000;21.380;2023-01-08T02:36:31;39.60;;;25.43;;
8550;SDS011;4313;42.000;21.380;2023-01-08T02:39:14;37.97;;;25.57;;
8550;SDS011;4313;42.000;21.380;2023-01-08T02:41:56;42.93;;;26.90;;
8550;SDS011;4313;42.000;21.380;2023-01-08T02:47:22;37.70;;;23.27;;
8550;SDS011;4313;42.000;21.380;2023-01-08T02:49:53;33.97;;;22.23;;
8550;SDS011;4313;42.000;21.380;2023-01-08T02:52:22;34.03;;;23.47;;
8550;SDS011;4313;42.000;21.380;2023-01-08T02:54:52;33.37;;;24.30;;
8550;SDS011;4313;42.000;21.380;2023-01-08T02:57:21;32.63;;;22.70;;
8550;SDS011;4313;42.000;21.380;2023-01-08T02:59:49;31.67;;;23.07;;
8550;SDS011;4313;42.000;21.380;2023-01-08T03:02:16;35.83;;;23.57;;
8550;SDS011;4313;42.000;21.380;2023-01-08T03:04:45;33.03;;;21.37;;
8550;SDS011;4313;42.000;21.380;2023-01-08T03:07:18;33.10;;;21.97;;
8550;SDS011;4313;42.000;21.380;2023-01-08T03:09:45;40.80;;;25.20;;
8550;SDS011;4313;42.000;21.380;2023-01-08T03:12:14;45.47;;;33.50;;
8550;SDS011;4313;42.000;21.380;2023-01-08T03:14:45;33.23;;;23.73;;
8550;SDS011;4313;42.000;21.380;2023-01-08T03:17:17;31.67;;;22.63;;
8550;SDS011;4313;42.000;21.380;2023-01-08T03:19:47;33.50;;;22.27;;
8550;SDS011;4313;42.000;21.380;2023-01-08T03:22:16;33.23;;;22.93;;
8550;SDS011;4313;42.000;21.380;2023-01-08T03:24:44;31.83;;;22.00;;
8550;SDS011;4313;42.000;21.380;2023-01-08T03:27:14;35.77;;;23.40;;
8550;SDS011;4313;42.000;21.380;2023-01-08T03:29:44;33.20;;;25.50;;
8550;SDS011;4313;42.000;21.380;2023-01-08T03:32:13;36.97;;;25.17;;
8550;SDS011;4313;42.000;21.380;2023-01-08T03:34:42;46.83;;;28.87;;
8550;SDS011;4313;42.000;21.380;2023-01-08T03:37:09;41.23;;;27.17;;
8550;SDS011;4313;42.000;21.380;2023-01-08T03:39:39;37.47;;;25.13;;
8550;SDS011;4313;42.000;21.380;2023-01-08T03:42:09;76.13;;;39.37;;
8550;SDS011;4313;42.000;21.380;2023-01-08T03:44:38;55.07;;;30.23;;
8550;SDS011;4313;42.000;21.380;2023-01-08T03:47:06;45.13;;;27.80;;
8550;SDS011;4313;42.000;21.380;2023-01-08T03:49:35;67.30;;;35.60;;
8550;SDS011;4313;42.000;21.380;2023-01-08T03:52:21;56.43;;;32.50;;
8550;SDS011;4313;42.000;21.380;2023-01-08T03:54:49;54.40;;;32.60;;
8550;SDS011;4313;42.000;21.380;2023-01-08T03:57:16;50.43;;;28.67;;
8550;SDS011;4313;42.000;21.380;2023-01-08T03:59:44;49.90;;;31.17;;
8550;SDS011;4313;42.000;21.380;2023-01-08T04:02:12;48.73;;;29.73;;
8550;SDS011;4313;42.000;21.380;2023-01-08T04:04:40;43.53;;;26.83;;
8550;SDS011;4313;42.000;21.380;2023-01-08T04:07:08;37.97;;;24.10;;
8550;SDS011;4313;42.000;21.380;2023-01-08T04:09:36;35.70;;;24.43;;
8550;SDS011;4313;42.000;21.380;2023-01-08T04:12:03;35.43;;;23.20;;
8550;SDS011;4313;42.000;21.380;2023-01-08T04:14:30;39.73;;;25.43;;
8550;SDS011;4313;42.000;21.380;2023-01-08T04:16:57;45.37;;;29.00;;
8550;SDS011;4313;42.000;21.380;2023-01-08T04:19:25;50.00;;;31.20;;
8550;SDS011;4313;42.000;21.380;2023-01-08T04:21:52;44.83;;;28.73;;
8550;SDS011;4313;42.000;21.380;2023-01-08T04:24:20;46.77;;;30.07;;
8550;SDS011;4313;42.000;21.380;2023-01-08T04:26:47;46.60;;;29.87;;
8550;SDS011;4313;42.000;21.380;2023-01-08T04:29:14;58.30;;;33.87;;
8550;SDS011;4313;42.000;21.380;2023-01-08T04:31:41;61.33;;;35.37;;
8550;SDS011;4313;42.000;21.380;2023-01-08T04:34:08;77.63;;;39.07;;
8550;SDS011;4313;42.000;21.380;2023-01-08T04:36:37;118.37;;;55.93;;
8550;SDS011;4313;42.000;21.380;2023-01-08T04:39:06;87.00;;;43.67;;
8550;SDS011;4313;42.000;21.380;2023-01-08T04:41:33;79.60;;;42.13;;
8550;SDS011;4313;42.000;21.380;2023-01-08T04:44:00;103.17;;;49.37;;
8550;SDS011;4313;42.000;21.380;2023-01-08T04:46:27;112.63;;;54.77;;
8550;SDS011;4313;42.000;21.380;2023-01-08T04:48:54;105.17;;;51.33;;
8550;SDS011;4313;42.000;21.380;2023-01-08T04:51:21;96.87;;;49.57;;
8550;SDS011;4313;42.000;21.380;2023-01-08T04:53:51;63.17;;;36.57;;
8550;SDS011;4313;42.000;21.380;2023-01-08T04:56:18;48.87;;;31.90;;
8550;SDS011;4313;42.000;21.380;2023-01-08T04:58:45;109.80;;;54.37;;
8550;SDS011;4313;42.000;21.380;2023-01-08T05:01:13;48.97;;;30.00;;
8550;SDS011;4313;42.000;21.380;2023-01-08T05:03:44;42.23;;;27.53;;
8550;SDS011;4313;42.000;21.380;2023-01-08T05:06:12;52.33;;;31.90;;
8550;SDS011;4313;42.000;21.380;2023-01-08T05:08:39;49.73;;;31.67;;
8550;SDS011;4313;42.000;21.380;2023-01-08T05:11:07;86.17;;;50.57;;
8550;SDS011;4313;42.000;21.380;2023-01-08T05:13:34;143.80;;;71.57;;
8550;SDS011;4313;42.000;21.380;2023-01-08T05:16:01;75.87;;;43.20;;
8550;SDS011;4313;42.000;21.380;2023-01-08T05:18:29;132.60;;;65.93;;
8550;SDS011;4313;42.000;21.380;2023-01-08T05:20:58;111.10;;;58.33;;
8550;SDS011;4313;42.000;21.380;2023-01-08T05:23:26;166.80;;;80.27;;
8550;SDS011;4313;42.000;21.380;2023-01-08T05:25:55;156.40;;;76.97;;
8550;SDS011;4313;42.000;21.380;2023-01-08T05:28:24;53.37;;;32.90;;
8550;SDS011;4313;42.000;21.380;2023-01-08T05:30:51;59.43;;;35.50;;
8550;SDS011;4313;42.000;21.380;2023-01-08T05:33:18;39.53;;;26.93;;
8550;SDS011;4313;42.000;21.380;2023-01-08T05:35:45;50.43;;;30.77;;
8550;SDS011;4313;42.000;21.380;2023-01-08T05:38:12;67.37;;;35.70;;
8550;SDS011;4313;42.000;21.380;2023-01-08T05:40:39;55.20;;;34.97;;
8550;SDS011;4313;42.000;21.380;2023-01-08T05:43:07;45.10;;;30.17;;
8550;SDS011;4313;42.000;21.380;2023-01-08T05:45:35;55.50;;;33.00;;
8550;SDS011;4313;42.000;21.380;2023-01-08T05:48:03;44.63;;;30.07;;
8550;SDS011;4313;42.000;21.380;2023-01-08T05:50:32;39.87;;;26.27;;
8550;SDS011;4313;42.000;21.380;2023-01-08T05:52:59;43.27;;;25.53;;
8550;SDS011;4313;42.000;21.380;2023-01-08T05:55:26;32.77;;;21.97;;
8550;SDS011;4313;42.000;21.380;2023-01-08T05:57:53;35.47;;;23.10;;
8550;SDS011;4313;42.000;21.380;2023-01-08T06:00:20;41.33;;;25.27;;
8550;SDS011;4313;42.000;21.380;2023-01-08T06:02:50;42.73;;;28.03;;
8550;SDS011;4313;42.000;21.380;2023-01-08T06:05:17;41.43;;;27.83;;
8550;SDS011;4313;42.000;21.380;2023-01-08T06:07:44;48.00;;;30.77;;
8550;SDS011;4313;42.000;21.380;2023-01-08T06:10:11;47.47;;;29.73;;
8550;SDS011;4313;42.000;21.380;2023-01-08T06:12:38;39.37;;;27.10;;
8550;SDS011;4313;42.000;21.380;2023-01-08T06:15:05;46.27;;;27.00;;
8550;SDS011;4313;42.000;21.380;2023-01-08T06:17:33;40.47;;;26.40;;
8550;SDS011;4313;42.000;21.380;2023-01-08T06:20:02;47.57;;;28.50;;
8550;SDS011;4313;42.000;21.380;2023-01-08T06:22:30;41.67;;;29.03;;
8550;SDS011;4313;42.000;21.380;2023-01-08T06:24:57;73.87;;;43.83;;
8550;SDS011;4313;42.000;21.380;2023-01-08T06:27:43;75.23;;;47.03;;
8550;SDS011;4313;42.000;21.380;2023-01-08T06:30:10;49.50;;;36.87;;
8550;SDS011;4313;42.000;21.380;2023-01-08T06:32:37;54.57;;;37.33;;
8550;SDS011;4313;42.000;21.380;2023-01-08T06:35:06;72.57;;;47.67;;
8550;SDS011;4313;42.000;21.380;2023-01-08T06:37:33;69.63;;;47.23;;
8550;SDS011;4313;42.000;21.380;2023-01-08T06:40:00;35.73;;;26.03;;
8550;SDS011;4313;42.000;21.380;2023-01-08T06:42:27;44.07;;;31.40;;
8550;SDS011;4313;42.000;21.380;2023-01-08T06:44:54;51.67;;;34.20;;
8550;SDS011;4313;42.000;21.380;2023-01-08T06:47:21;57.73;;;37.27;;
8550;SDS011;4313;42.000;21.380;2023-01-08T06:49:48;57.73;;;37.40;;
8550;SDS011;4313;42.000;21.380;2023-01-08T06:52:17;46.93;;;32.17;;
8550;SDS011;4313;42.000;21.380;2023-01-08T06:54:44;74.27;;;46.77;;
8550;SDS011;4313;42.000;21.380;2023-01-08T06:57:11;94.50;;;53.63;;
8550;SDS011;4313;42.000;21.380;2023-01-08T06:59:38;68.50;;;41.60;;
8550;SDS011;4313;42.000;21.380;2023-01-08T07:02:05;78.37;;;44.30;;
8550;SDS011;4313;42.000;21.380;2023-01-08T07:04:32;92.63;;;47.37;;
8550;SDS011;4313;42.000;21.380;2023-01-08T07:06:59;101.47;;;55.73;;
8550;SDS011;4313;42.000;21.380;2023-01-08T07:09:27;89.73;;;50.23;;
8550;SDS011;4313;42.000;21.380;2023-01-08T07:11:54;67.97;;;43.43;;
8550;SDS011;4313;42.000;21.380;2023-01-08T07:14:21;72.23;;;42.60;;
8550;SDS011;4313;42.000;21.380;2023-01-08T07:16:48;61.43;;;39.03;;
8550;SDS011;4313;42.000;21.380;2023-01-08T07:19:16;59.70;;;40.63;;
8550;SDS011;4313;42.000;21.380;2023-01-08T07:21:43;54.57;;;36.43;;
8550;SDS011;4313;42.000;21.380;2023-01-08T07:24:10;56.33;;;39.07;;
8550;SDS011;4313;42.000;21.380;2023-01-08T07:26:38;66.53;;;47.27;;
8550;SDS011;4313;42.000;21.380;2023-01-08T07:29:06;66.70;;;47.07;;
8550;SDS011;4313;42.000;21.380;2023-01-08T07:31:33;67.53;;;45.73;;
8550;SDS011;4313;42.000;21.380;2023-01-08T07:34:00;67.37;;;46.93;;
8550;SDS011;4313;42.000;21.380;2023-01-08T07:36:27;48.97;;;38.70;;
8550;SDS011;4313;42.000;21.380;2023-01-08T07:38:54;44.40;;;36.97;;
8550;SDS011;4313;42.000;21.380;2023-01-08T07:41:21;36.63;;;29.13;;
8550;SDS011;4313;42.000;21.380;2023-01-08T07:43:50;30.80;;;25.73;;
8550;SDS011;4313;42.000;21.380;2023-01-08T07:46:17;33.47;;;28.25;;
8550;SDS011;4313;42.000;21.380;2023-01-08T07:48:44;32.42;;;27.45;;
8550;SDS011;4313;42.000;21.380;2023-01-08T07:51:11;28.13;;;22.95;;
8550;SDS011;4313;42.000;21.380;2023-01-08T07:53:38;33.00;;;26.00;;
8550;SDS011;4313;42.000;21.380;2023-01-08T07:56:06;32.05;;;25.77;;
8550;SDS011;4313;42.000;21.380;2023-01-08T07:58:35;27.10;;;23.83;;
8550;SDS011;4313;42.000;21.380;2023-01-08T08:01:06;26.88;;;23.67;;
8550;SDS011;4313;42.000;21.380;2023-01-08T08:03:34;28.15;;;24.40;;
8550;SDS011;4313;42.000;21.380;2023-01-08T08:06:01;31.90;;;27.35;;
8550;SDS011;4313;42.000;21.380;2023-01-08T08:08:28;31.55;;;25.23;;
8550;SDS011;4313;42.000;21.380;2023-01-08T08:10:55;30.50;;;26.13;;
8550;SDS011;4313;42.000;21.380;2023-01-08T08:13:22;30.58;;;24.85;;
8550;SDS011;4313;42.000;21.380;2023-01-08T08:15:49;40.53;;;35.67;;
8550;SDS011;4313;42.000;21.380;2023-01-08T08:18:17;30.88;;;25.23;;
8550;SDS011;4313;42.000;21.380;2023-01-08T08:20:45;28.60;;;23.73;;
8550;SDS011;4313;42.000;21.380;2023-01-08T08:23:13;28.92;;;23.65;;
8550;SDS011;4313;42.000;21.380;2023-01-08T08:25:40;26.88;;;22.45;;
8550;SDS011;4313;42.000;21.380;2023-01-08T08:28:08;25.65;;;22.60;;
8550;SDS011;4313;42.000;21.380;2023-01-08T08:30:36;24.45;;;21.83;;
8550;SDS011;4313;42.000;21.380;2023-01-08T08:33:04;27.77;;;24.75;;
8550;SDS011;4313;42.000;21.380;2023-01-08T08:35:34;26.52;;;23.30;;
8550;SDS011;4313;42.000;21.380;2023-01-08T08:38:01;26.00;;;22.85;;
8550;SDS011;4313;42.000;21.380;2023-01-08T08:40:28;28.73;;;25.65;;
8550;SDS011;4313;42.000;21.380;2023-01-08T08:42:55;27.27;;;22.70;;
8550;SDS011;4313;42.000;21.380;2023-01-08T08:45:23;27.35;;;23.40;;
8550;SDS011;4313;42.000;21.380;2023-01-08T08:47:50;30.05;;;25.50;;
8550;SDS011;4313;42.000;21.380;2023-01-08T08:50:17;32.58;;;29.02;;
8550;SDS011;4313;42.000;21.380;2023-01-08T08:52:46;38.75;;;31.73;;
8550;SDS011;4313;42.000;21.380;2023-01-08T08:55:13;43.15;;;36.25;;
8550;SDS011;4313;42.000;21.380;2023-01-08T08:57:41;42.35;;;37.17;;
8550;SDS011;4313;42.000;21.380;2023-01-08T09:00:09;45.10;;;38.03;;
8550;SDS011;4313;42.000;21.380;2023-01-08T09:02:37;46.33;;;37.88;;
8550;SDS011;4313;42.000;21.380;2023-01-08T09:05:04;47.70;;;40.72;;
8550;SDS011;4313;42.000;21.380;2023-01-08T09:07:32;45.95;;;39.90;;
8550;SDS011;4313;42.000;21.380;2023-01-08T09:10:00;49.05;;;42.58;;
8550;SDS011;4313;42.000;21.380;2023-01-08T09:12:27;52.67;;;41.60;;
8550;SDS011;4313;42.000;21.380;2023-01-08T09:14:54;47.22;;;38.88;;
8550;SDS011;4313;42.000;21.380;2023-01-08T09:17:22;43.80;;;38.40;;
8550;SDS011;4313;42.000;21.380;2023-01-08T09:19:50;51.70;;;42.13;;
8550;SDS011;4313;42.000;21.380;2023-01-08T09:22:19;53.47;;;41.25;;
8550;SDS011;4313;42.000;21.380;2023-01-08T09:24:46;46.38;;;39.55;;
8550;SDS011;4313;42.000;21.380;2023-01-08T09:27:14;66.45;;;46.58;;
8550;SDS011;4313;42.000;21.380;2023-01-08T09:29:41;66.63;;;47.88;;
8550;SDS011;4313;42.000;21.380;2023-01-08T09:32:08;62.53;;;48.70;;
8550;SDS011;4313;42.000;21.380;2023-01-08T09:34:36;112.28;;;55.78;;
8550;SDS011;4313;42.000;21.380;2023-01-08T09:37:03;120.22;;;59.20;;
8550;SDS011;4313;42.000;21.380;2023-01-08T09:39:30;110.28;;;56.55;;
8550;SDS011;4313;42.000;21.380;2023-01-08T09:41:59;127.50;;;60.90;;
8550;SDS011;4313;42.000;21.380;2023-01-08T09:44:28;142.02;;;59.33;;
8550;SDS011;4313;42.000;21.380;2023-01-08T09:46:59;129.82;;;58.65;;
8550;SDS011;4313;42.000;21.380;2023-01-08T09:49:35;115.75;;;54.58;;
8550;SDS011;4313;42.000;21.380;2023-01-08T09:52:09;130.95;;;56.92;;
8550;SDS011;4313;42.000;21.380;2023-01-08T09:54:37;143.70;;;59.92;;
8550;SDS011;4313;42.000;21.380;2023-01-08T09:57:05;123.18;;;56.15;;
8550;SDS011;4313;42.000;21.380;2023-01-08T09:59:37;125.78;;;56.58;;
8550;SDS011;4313;42.000;21.380;2023-01-08T10:02:08;107.15;;;52.80;;
8550;SDS011;4313;42.000;21.380;2023-01-08T10:04:38;101.38;;;53.50;;
8550;SDS011;4313;42.000;21.380;2023-01-08T10:07:09;112.05;;;57.25;;
8550;SDS011;4313;42.000;21.380;2023-01-08T10:09:40;112.90;;;59.67;;
8550;SDS011;4313;42.000;21.380;2023-01-08T10:12:08;107.82;;;56.65;;
8550;SDS011;4313;42.000;21.380;2023-01-08T10:14:39;106.57;;;55.88;;
8550;SDS011;4313;42.000;21.380;2023-01-08T10:17:15;100.97;;;58.67;;
8550;SDS011;4313;42.000;21.380;2023-01-08T10:19:47;101.38;;;57.00;;
8550;SDS011;4313;42.000;21.380;2023-01-08T10:22:15;99.57;;;57.28;;
8550;SDS011;4313;42.000;21.380;2023-01-08T10:24:43;92.60;;;55.17;;
8550;SDS011;4313;42.000;21.380;2023-01-08T10:27:11;88.40;;;55.45;;
8550;SDS011;4313;42.000;21.380;2023-01-08T10:29:40;93.45;;;56.17;;
8550;SDS011;4313;42.000;21.380;2023-01-08T10:32:08;79.53;;;52.70;;
8550;SDS011;4313;42.000;21.380;2023-01-08T10:34:40;80.32;;;52.58;;
8550;SDS011;4313;42.000;21.380;2023-01-08T10:37:13;88.90;;;55.17;;
8550;SDS011;4313;42.000;21.380;2023-01-08T10:39:43;95.70;;;57.45;;
8550;SDS011;4313;42.000;21.380;2023-01-08T10:42:11;88.97;;;54.10;;
8550;SDS011;4313;42.000;21.380;2023-01-08T10:44:44;85.47;;;54.35;;
8550;SDS011;4313;42.000;21.380;2023-01-08T10:47:19;82.25;;;53.60;;
8550;SDS011;4313;42.000;21.380;2023-01-08T10:49:46;86.38;;;53.85;;
8550;SDS011;4313;42.000;21.380;2023-01-08T10:52:23;84.22;;;54.63;;
8550;SDS011;4313;42.000;21.380;2023-01-08T10:54:52;75.15;;;46.95;;
8550;SDS011;4313;42.000;21.380;2023-01-08T10:57:20;80.28;;;50.95;;
8550;SDS011;4313;42.000;21.380;2023-01-08T10:59:49;85.40;;;53.85;;
8550;SDS011;4313;42.000;21.380;2023-01-08T11:02:21;83.90;;;54.90;;
8550;SDS011;4313;42.000;21.380;2023-01-08T11:04:54;72.82;;;47.78;;
8550;SDS011;4313;42.000;21.380;2023-01-08T11:07:21;73.63;;;49.13;;
8550;SDS011;4313;42.000;21.380;2023-01-08T11:09:49;67.50;;;47.60;;
8550;SDS011;4313;42.000;21.380;2023-01-08T11:12:31;69.85;;;46.63;;
8550;SDS011;4313;42.000;21.380;2023-01-08T11:15:03;70.70;;;45.83;;
8550;SDS011;4313;42.000;21.380;2023-01-08T11:17:31;70.25;;;45.90;;
8550;SDS011;4313;42.000;21.380;2023-01-08T11:20:06;73.63;;;48.33;;
8550;SDS011;4313;42.000;21.380;2023-01-08T11:22:35;71.85;;;49.50;;
8550;SDS011;4313;42.000;21.380;2023-01-08T11:25:02;67.75;;;45.92;;
8550;SDS011;4313;42.000;21.380;2023-01-08T11:27:32;59.38;;;41.75;;
8550;SDS011;4313;42.000;21.380;2023-01-08T11:30:03;70.10;;;46.38;;
8550;SDS011;4313;42.000;21.380;2023-01-08T11:32:38;63.50;;;44.90;;
8550;SDS011;4313;42.000;21.380;2023-01-08T11:35:12;73.88;;;50.08;;
8550;SDS011;4313;42.000;21.380;2023-01-08T11:37:45;77.97;;;52.28;;
8550;SDS011;4313;42.000;21.380;2023-01-08T11:40:16;75.85;;;52.15;;
8550;SDS011;4313;42.000;21.380;2023-01-08T11:42:51;70.82;;;48.20;;
8550;SDS011;4313;42.000;21.380;2023-01-08T11:45:30;64.32;;;44.17;;
8550;SDS011;4313;42.000;21.380;2023-01-08T11:48:15;68.32;;;46.20;;
8550;SDS011;4313;42.000;21.380;2023-01-08T11:50:53;64.35;;;43.65;;
8550;SDS011;4313;42.000;21.380;2023-01-08T11:53:26;58.63;;;42.42;;
8550;SDS011;4313;42.000;21.380;2023-01-08T11:56:01;62.05;;;44.67;;
8550;SDS011;4313;42.000;21.380;2023-01-08T11:58:41;61.85;;;46.30;;
8550;SDS011;4313;42.000;21.380;2023-01-08T12:01:21;60.80;;;45.92;;
8550;SDS011;4313;42.000;21.380;2023-01-08T12:04:01;67.18;;;45.50;;
8550;SDS011;4313;42.000;21.380;2023-01-08T12:06:37;57.65;;;44.42;;
8550;SDS011;4313;42.000;21.380;2023-01-08T12:09:10;54.22;;;40.38;;
8550;SDS011;4313;42.000;21.380;2023-01-08T12:11:43;61.10;;;44.88;;
8550;SDS011;4313;42.000;21.380;2023-01-08T12:17:11;64.35;;;47.28;;
8550;SDS011;4313;42.000;21.380;2023-01-08T12:19:49;62.65;;;47.70;;
8550;SDS011;4313;42.000;21.380;2023-01-08T12:22:25;60.20;;;41.38;;
8550;SDS011;4313;42.000;21.380;2023-01-08T12:25:10;56.85;;;41.33;;
8550;SDS011;4313;42.000;21.380;2023-01-08T12:28:13;52.88;;;41.60;;
8550;SDS011;4313;42.000;21.380;2023-01-08T12:30:45;61.05;;;40.90;;
8550;SDS011;4313;42.000;21.380;2023-01-08T12:33:25;53.45;;;39.50;;
8550;SDS011;4313;42.000;21.380;2023-01-08T12:35:59;55.63;;;39.42;;
8550;SDS011;4313;42.000;21.380;2023-01-08T12:38:29;56.55;;;40.47;;
8550;SDS011;4313;42.000;21.380;2023-01-08T12:40:59;54.13;;;37.10;;
8550;SDS011;4313;42.000;21.380;2023-01-08T12:43:49;59.57;;;40.33;;
8550;SDS011;4313;42.000;21.380;2023-01-08T12:49:14;58.20;;;40.07;;
8550;SDS011;4313;42.000;21.380;2023-01-08T12:51:48;57.03;;;37.93;;
8550;SDS011;4313;42.000;21.380;2023-01-08T12:54:21;61.83;;;39.47;;
8550;SDS011;4313;42.000;21.380;2023-01-08T12:56:53;62.37;;;39.53;;
8550;SDS011;4313;42.000;21.380;2023-01-08T12:59:26;57.53;;;38.80;;
8550;SDS011;4313;42.000;21.380;2023-01-08T13:01:58;50.87;;;37.67;;
8550;SDS011;4313;42.000;21.380;2023-01-08T13:04:39;56.07;;;37.30;;
8550;SDS011;4313;42.000;21.380;2023-01-08T13:07:10;53.77;;;38.67;;
8550;SDS011;4313;42.000;21.380;2023-01-08T13:09:42;52.33;;;38.53;;
8550;SDS011;4313;42.000;21.380;2023-01-08T13:12:09;51.63;;;37.90;;
8550;SDS011;4313;42.000;21.380;2023-01-08T13:14:39;46.30;;;36.28;;
8550;SDS011;4313;42.000;21.380;2023-01-08T13:17:14;65.70;;;42.27;;
8550;SDS011;4313;42.000;21.380;2023-01-08T13:19:49;54.33;;;37.10;;
8550;SDS011;4313;42.000;21.380;2023-01-08T13:22:22;53.37;;;37.50;;
8550;SDS011;4313;42.000;21.380;2023-01-08T13:24:50;163.40;;;95.77;;
8550;SDS011;4313;42.000;21.380;2023-01-08T13:27:25;56.97;;;39.10;;
8550;SDS011;4313;42.000;21.380;2023-01-08T13:29:54;49.50;;;36.77;;
8550;SDS011;4313;42.000;21.380;2023-01-08T13:32:23;49.33;;;36.00;;
8550;SDS011;4313;42.000;21.380;2023-01-08T13:35:16;48.63;;;38.50;;
8550;SDS011;4313;42.000;21.380;2023-01-08T13:37:47;57.03;;;38.80;;
8550;SDS011;4313;42.000;21.380;2023-01-08T13:43:04;67.57;;;46.43;;
8550;SDS011;4313;42.000;21.380;2023-01-08T13:45:36;63.58;;;46.50;;
8550;SDS011;4313;42.000;21.380;2023-01-08T13:48:03;62.10;;;45.97;;
8550;SDS011;4313;42.000;21.380;2023-01-08T13:50:32;62.93;;;44.23;;
8550;SDS011;4313;42.000;21.380;2023-01-08T13:53:01;61.87;;;43.77;;
8550;SDS011;4313;42.000;21.380;2023-01-08T13:55:30;71.63;;;47.13;;
8550;SDS011;4313;42.000;21.380;2023-01-08T13:58:00;69.63;;;47.93;;
8550;SDS011;4313;42.000;21.380;2023-01-08T14:00:29;79.07;;;51.03;;
8550;SDS011;4313;42.000;21.380;2023-01-08T14:02:57;86.27;;;56.60;;
8550;SDS011;4313;42.000;21.380;2023-01-08T14:05:25;96.83;;;64.73;;
8550;SDS011;4313;42.000;21.380;2023-01-08T14:07:55;89.83;;;61.63;;
8550;SDS011;4313;42.000;21.380;2023-01-08T14:10:23;97.57;;;64.07;;
8550;SDS011;4313;42.000;21.380;2023-01-08T14:12:50;119.97;;;71.33;;
8550;SDS011;4313;42.000;21.380;2023-01-08T14:15:21;89.83;;;59.10;;
8550;SDS011;4313;42.000;21.380;2023-01-08T14:17:50;101.37;;;62.73;;
8550;SDS011;4313;42.000;21.380;2023-01-08T14:20:28;113.67;;;72.47;;
8550;SDS011;4313;42.000;21.380;2023-01-08T14:22:59;93.50;;;63.97;;
8550;SDS011;4313;42.000;21.380;2023-01-08T14:25:27;87.10;;;56.67;;
8550;SDS011;4313;42.000;21.380;2023-01-08T14:27:55;83.30;;;54.43;;
8550;SDS011;4313;42.000;21.380;2023-01-08T14:30:24;84.80;;;56.70;;
8550;SDS011;4313;42.000;21.380;2023-01-08T14:32:51;88.03;;;56.10;;
8550;SDS011;4313;42.000;21.380;2023-01-08T14:35:21;95.53;;;57.07;;
8550;SDS011;4313;42.000;21.380;2023-01-08T14:37:52;94.97;;;60.77;;
8550;SDS011;4313;42.000;21.380;2023-01-08T14:40:26;137.10;;;87.73;;
8550;SDS011;4313;42.000;21.380;2023-01-08T14:42:54;137.13;;;85.30;;
8550;SDS011;4313;42.000;21.380;2023-01-08T14:45:22;128.53;;;78.00;;
8550;SDS011;4313;42.000;21.380;2023-01-08T14:47:52;132.23;;;76.37;;
8550;SDS011;4313;42.000;21.380;2023-01-08T14:50:23;140.33;;;81.17;;
8550;SDS011;4313;42.000;21.380;2023-01-08T14:52:51;138.13;;;79.53;;
8550;SDS011;4313;42.000;21.380;2023-01-08T14:55:19;152.90;;;91.40;;
8550;SDS011;4313;42.000;21.380;2023-01-08T14:57:48;131.77;;;79.37;;